createdAt,value
2023-12-23T00:01:01.433Z,2.03
2023-12-23T00:03:28.266Z,2.08
2023-12-23T00:05:55.198Z,2.17
2023-12-23T00:08:22.222Z,2.24
2023-12-23T00:10:49.221Z,2.32
2023-12-23T00:13:16.034Z,2.38
2023-12-23T00:15:42.897Z,2.40
2023-12-23T00:18:10.048Z,2.43
2023-12-23T00:20:37.952Z,2.44
2023-12-23T00:23:05.442Z,2.46
2023-12-23T00:25:32.528Z,2.50
2023-12-23T00:27:59.374Z,2.55
2023-12-23T00:30:26.243Z,2.59
2023-12-23T00:32:53.308Z,2.61
2023-12-23T00:35:20.222Z,2.62
2023-12-23T00:37:47.665Z,2.64
2023-12-23T00:40:14.942Z,2.65
2023-12-23T00:42:41.798Z,2.66
2023-12-23T00:45:08.958Z,2.66
2023-12-23T00:47:38.351Z,2.67
2023-12-23T00:50:06.338Z,2.69
2023-12-23T00:52:33.463Z,2.71
2023-12-23T00:55:01.274Z,2.70
2023-12-23T00:57:29.331Z,2.75
2023-12-23T00:59:59.238Z,2.78
2023-12-23T01:02:26.014Z,2.79
2023-12-23T01:04:55.551Z,2.78
2023-12-23T01:07:22.673Z,2.78
2023-12-23T01:09:49.730Z,2.78
2023-12-23T01:12:16.716Z,2.79
2023-12-23T01:14:45.619Z,2.78
2023-12-23T01:17:12.784Z,2.79
2023-12-23T01:19:39.698Z,2.75
2023-12-23T01:22:06.485Z,2.75
2023-12-23T01:24:33.305Z,2.76
2023-12-23T01:27:00.155Z,2.77
2023-12-23T01:29:26.970Z,2.77
2023-12-23T01:31:53.816Z,2.76
2023-12-23T01:34:21.068Z,2.77
2023-12-23T01:36:47.923Z,2.78
2023-12-23T01:39:14.761Z,2.83
2023-12-23T01:41:41.708Z,2.87
2023-12-23T01:44:09.100Z,2.88
2023-12-23T01:46:36.546Z,2.89
2023-12-23T01:49:05.063Z,2.90
2023-12-23T01:51:32.893Z,2.90
2023-12-23T01:54:03.827Z,2.91
2023-12-23T01:56:30.984Z,2.93
2023-12-23T01:58:58.234Z,2.91
2023-12-23T02:01:25.155Z,2.90
2023-12-23T02:03:52.094Z,2.89
2023-12-23T02:06:19.079Z,2.88
2023-12-23T02:08:46.969Z,2.89
2023-12-23T02:11:17.330Z,2.90
2023-12-23T02:14:00.154Z,2.90
2023-12-23T02:16:27.269Z,2.90
2023-12-23T02:18:54.168Z,2.92
2023-12-23T02:21:21.331Z,2.93
2023-12-23T02:23:50.136Z,2.93
2023-12-23T02:26:20.862Z,2.96
2023-12-23T02:28:53.107Z,2.95
2023-12-23T02:31:21.452Z,2.95
2023-12-23T02:33:49.268Z,2.96
2023-12-23T02:36:23.860Z,2.97
2023-12-23T02:38:50.803Z,2.97
2023-12-23T02:41:18.058Z,2.99
2023-12-23T02:43:45.056Z,2.99
2023-12-23T02:46:12.080Z,2.99
2023-12-23T02:48:39.074Z,3.00
2023-12-23T02:51:06.060Z,3.01
2023-12-23T02:53:32.941Z,3.01
2023-12-23T02:56:01.105Z,3.04
2023-12-23T02:58:28.038Z,3.03
2023-12-23T03:00:54.914Z,3.03
2023-12-23T03:03:21.755Z,3.02
2023-12-23T03:05:48.709Z,3.01
2023-12-23T03:08:15.755Z,2.99
2023-12-23T03:10:42.887Z,2.99
2023-12-23T03:13:09.861Z,2.97
2023-12-23T03:15:36.705Z,2.98
2023-12-23T03:18:03.811Z,3.00
2023-12-23T03:20:31.331Z,3.01
2023-12-23T03:22:58.169Z,3.01
2023-12-23T03:25:25.246Z,3.00
2023-12-23T03:27:52.376Z,3.01
2023-12-23T03:30:19.330Z,3.02
2023-12-23T03:32:47.334Z,3.03
2023-12-23T03:35:14.378Z,3.04
2023-12-23T03:37:41.204Z,3.05
2023-12-23T03:40:09.935Z,3.07
2023-12-23T03:42:40.384Z,3.08
2023-12-23T03:45:07.786Z,3.08
2023-12-23T03:47:37.594Z,3.08
2023-12-23T03:50:04.725Z,3.10
2023-12-23T03:52:31.592Z,3.11
2023-12-23T03:54:58.375Z,3.13
2023-12-23T03:57:25.232Z,3.17
2023-12-23T03:59:52.043Z,3.19
2023-12-23T04:02:18.997Z,3.19
2023-12-23T04:04:45.927Z,3.18
2023-12-23T04:07:13.478Z,3.10
2023-12-23T04:09:41.505Z,2.96
2023-12-23T04:12:10.633Z,2.86
2023-12-23T04:14:38.679Z,2.77
2023-12-23T04:17:06.054Z,2.70
2023-12-23T04:19:33.410Z,2.67
2023-12-23T04:22:00.332Z,2.66
2023-12-23T04:24:30.713Z,2.63
2023-12-23T04:26:57.556Z,2.58
2023-12-23T04:29:25.760Z,2.57
2023-12-23T04:31:52.808Z,2.55
2023-12-23T04:34:19.913Z,2.49
2023-12-23T04:36:47.361Z,2.48
2023-12-23T04:39:14.148Z,2.54
2023-12-23T04:41:48.372Z,2.53
2023-12-23T04:44:16.273Z,2.43
2023-12-23T04:46:44.086Z,2.36
2023-12-23T04:49:11.016Z,2.32
2023-12-23T04:51:37.963Z,2.32
2023-12-23T04:54:04.914Z,2.38
2023-12-23T04:56:31.763Z,2.44
2023-12-23T04:58:58.748Z,2.49
2023-12-23T05:01:27.106Z,2.54
2023-12-23T05:03:54.972Z,2.60
2023-12-23T05:06:22.015Z,2.66
2023-12-23T05:08:49.079Z,2.70
2023-12-23T05:11:16.194Z,2.74
2023-12-23T05:13:43.238Z,2.79
2023-12-23T05:16:10.347Z,2.83
2023-12-23T05:18:38.522Z,2.86
2023-12-23T05:21:06.232Z,2.85
2023-12-23T05:23:34.066Z,2.89
2023-12-23T05:26:00.932Z,2.93
2023-12-23T05:28:27.752Z,2.94
2023-12-23T05:30:54.708Z,2.97
2023-12-23T05:33:26.064Z,3.01
2023-12-23T05:35:53.434Z,3.01
2023-12-23T05:38:20.594Z,2.98
2023-12-23T05:40:47.552Z,2.90
2023-12-23T05:43:14.776Z,2.81
2023-12-23T05:45:41.743Z,2.79
2023-12-23T05:48:08.784Z,2.83
2023-12-23T05:50:35.953Z,2.82
2023-12-23T05:53:02.749Z,2.82
2023-12-23T05:55:29.690Z,2.84
2023-12-23T05:57:56.587Z,2.86
2023-12-23T06:00:23.442Z,2.88
2023-12-23T06:02:50.684Z,2.91
2023-12-23T06:05:17.911Z,2.92
2023-12-23T06:07:44.910Z,2.91
2023-12-23T06:10:11.948Z,2.92
2023-12-23T06:12:38.794Z,2.93
2023-12-23T06:15:06.061Z,2.90
2023-12-23T06:17:33.035Z,2.88
2023-12-23T06:20:00.274Z,2.89
2023-12-23T06:22:27.217Z,2.89
2023-12-23T06:24:54.070Z,2.88
2023-12-23T06:27:20.918Z,2.87
2023-12-23T06:29:47.764Z,2.85
2023-12-23T06:32:14.735Z,2.84
2023-12-23T06:34:41.694Z,2.85
2023-12-23T06:37:08.716Z,2.82
2023-12-23T06:39:35.977Z,2.78
2023-12-23T06:42:02.827Z,2.76
2023-12-23T06:44:29.705Z,2.71
2023-12-23T06:46:56.660Z,2.67
2023-12-23T06:49:25.724Z,2.61
2023-12-23T06:51:52.776Z,2.58
2023-12-23T06:54:19.632Z,2.58
2023-12-23T06:56:46.581Z,2.63
2023-12-23T06:59:14.508Z,2.67
2023-12-23T07:01:41.639Z,2.71
2023-12-23T07:04:09.568Z,2.76
2023-12-23T07:06:37.054Z,2.78
2023-12-23T07:09:06.322Z,2.81
2023-12-23T07:11:35.041Z,2.84
2023-12-23T07:14:02.178Z,2.87
2023-12-23T07:16:29.060Z,2.88
2023-12-23T07:18:56.079Z,2.87
2023-12-23T07:21:22.958Z,2.89
2023-12-23T07:23:50.099Z,2.91
2023-12-23T07:26:16.965Z,2.93
2023-12-23T07:28:43.962Z,2.95
2023-12-23T07:31:10.849Z,2.96
2023-12-23T07:33:37.864Z,2.98
2023-12-23T07:36:04.856Z,3.00
2023-12-23T07:38:31.797Z,2.99
2023-12-23T07:40:58.883Z,3.02
2023-12-23T07:43:25.824Z,3.04
2023-12-23T07:45:52.726Z,3.07
2023-12-23T07:48:19.676Z,3.06
2023-12-23T07:50:46.665Z,3.06
2023-12-23T07:53:13.765Z,3.07
2023-12-23T07:55:41.845Z,3.06
2023-12-23T07:58:08.802Z,3.04
2023-12-23T08:00:35.702Z,3.05
2023-12-23T08:03:02.649Z,3.06
2023-12-23T08:05:33.187Z,3.08
2023-12-23T08:08:00.345Z,3.09
2023-12-23T08:10:27.409Z,3.08
2023-12-23T08:12:54.515Z,3.06
2023-12-23T08:15:21.698Z,3.07
2023-12-23T08:17:48.703Z,3.06
2023-12-23T08:20:15.888Z,3.07
2023-12-23T08:22:42.950Z,3.07
2023-12-23T08:25:10.426Z,3.08
2023-12-23T08:27:38.648Z,3.07
2023-12-23T08:30:06.737Z,3.06
2023-12-23T08:32:34.536Z,3.03
2023-12-23T08:35:02.000Z,2.97
2023-12-23T08:37:29.067Z,2.95
2023-12-23T08:39:55.925Z,2.95
2023-12-23T08:42:22.872Z,2.93
2023-12-23T08:44:50.427Z,2.94
2023-12-23T08:47:17.504Z,2.94
2023-12-23T08:49:44.487Z,2.95
2023-12-23T08:52:11.651Z,2.93
2023-12-23T08:54:41.722Z,2.90
2023-12-23T08:57:09.680Z,2.86
2023-12-23T08:59:36.635Z,2.83
2023-12-23T09:02:05.332Z,2.82
2023-12-23T09:04:32.498Z,2.84
2023-12-23T09:06:59.482Z,2.83
2023-12-23T09:09:26.583Z,2.86
2023-12-23T09:11:53.633Z,2.85
2023-12-23T09:14:20.745Z,2.84
2023-12-23T09:16:47.792Z,2.81
2023-12-23T09:19:14.811Z,2.78
2023-12-23T09:21:41.749Z,2.80
2023-12-23T09:24:08.627Z,2.82
2023-12-23T09:26:36.834Z,2.84
2023-12-23T09:29:04.005Z,2.85
2023-12-23T09:31:31.671Z,2.84
2023-12-23T09:33:58.756Z,2.83
2023-12-23T09:36:25.720Z,2.82
2023-12-23T09:38:52.561Z,2.83
2023-12-23T09:41:20.038Z,2.85
2023-12-23T09:43:49.050Z,2.84
2023-12-23T09:46:17.665Z,2.82
2023-12-23T09:48:45.068Z,2.80
2023-12-23T09:51:12.460Z,2.80
2023-12-23T09:53:39.511Z,2.78
2023-12-23T09:56:07.809Z,2.76
2023-12-23T09:58:35.541Z,2.75
2023-12-23T10:01:02.542Z,2.75
2023-12-23T10:03:30.460Z,2.76
2023-12-23T10:06:02.385Z,2.76
2023-12-23T10:08:29.620Z,2.75
2023-12-23T10:10:56.663Z,2.76
2023-12-23T10:13:23.600Z,2.77
2023-12-23T10:15:50.961Z,2.78
2023-12-23T10:18:18.007Z,2.79
2023-12-23T10:20:45.048Z,2.79
2023-12-23T10:23:12.175Z,2.80
2023-12-23T10:25:40.176Z,2.79
2023-12-23T10:28:08.113Z,2.78
2023-12-23T10:30:35.787Z,2.78
2023-12-23T10:33:09.833Z,2.79
2023-12-23T10:35:45.918Z,2.79
2023-12-23T10:38:18.100Z,2.79
2023-12-23T10:41:04.431Z,2.78
2023-12-23T10:43:31.651Z,2.80
2023-12-23T10:45:59.077Z,2.81
2023-12-23T10:48:26.939Z,2.83
2023-12-23T10:50:54.929Z,2.80
2023-12-23T10:53:22.826Z,2.80
2023-12-23T10:55:49.763Z,2.78
2023-12-23T10:58:18.082Z,2.75
2023-12-23T11:00:45.561Z,2.73
2023-12-23T11:03:13.042Z,2.72
2023-12-23T11:05:41.950Z,2.68
2023-12-23T11:08:17.001Z,2.66
2023-12-23T11:10:46.468Z,2.64
2023-12-23T11:13:14.810Z,2.67
2023-12-23T11:15:41.929Z,2.69
2023-12-23T11:18:10.718Z,2.68
2023-12-23T11:20:37.806Z,2.65
2023-12-23T11:23:23.462Z,2.62
2023-12-23T11:25:50.601Z,2.62
2023-12-23T11:28:19.017Z,2.60
2023-12-23T11:30:56.730Z,2.56
2023-12-23T11:33:24.652Z,2.54
2023-12-23T11:35:57.719Z,2.52
2023-12-23T11:38:30.246Z,2.49
2023-12-23T11:40:57.343Z,2.49
2023-12-23T11:43:24.582Z,2.45
2023-12-23T11:45:51.897Z,2.43
2023-12-23T11:48:22.558Z,2.42
2023-12-23T11:50:49.651Z,2.40
2023-12-23T11:53:16.854Z,2.39
2023-12-23T11:55:44.238Z,2.41
2023-12-23T11:58:12.196Z,2.41
2023-12-23T12:00:42.087Z,2.40
2023-12-23T12:03:12.266Z,2.35
2023-12-23T12:05:39.165Z,2.35
2023-12-23T12:08:07.889Z,2.33
2023-12-23T12:10:35.321Z,2.32
2023-12-23T12:13:02.274Z,2.32
2023-12-23T12:15:29.223Z,2.30
2023-12-23T12:17:56.956Z,2.30
2023-12-23T12:20:24.590Z,2.28
2023-12-23T12:22:51.892Z,2.21
2023-12-23T12:25:19.088Z,2.18
2023-12-23T12:27:46.021Z,2.16
2023-12-23T12:30:13.533Z,2.15
2023-12-23T12:32:45.720Z,2.16
2023-12-23T12:35:13.597Z,2.14
2023-12-23T12:37:41.298Z,2.13
2023-12-23T12:40:12.491Z,2.13
2023-12-23T12:42:39.766Z,2.12
2023-12-23T12:45:07.069Z,2.11
2023-12-23T12:47:38.244Z,2.10
2023-12-23T12:50:07.546Z,2.10
2023-12-23T12:52:35.351Z,2.11
2023-12-23T12:55:05.723Z,2.13
2023-12-23T12:57:33.078Z,2.14
2023-12-23T12:59:59.852Z,2.15
2023-12-23T13:02:26.901Z,2.18
2023-12-23T13:04:53.972Z,2.18
2023-12-23T13:07:22.377Z,2.17
2023-12-23T13:09:49.356Z,2.16
2023-12-23T13:12:17.436Z,2.16
2023-12-23T13:14:44.396Z,2.18
2023-12-23T13:17:11.376Z,2.19
2023-12-23T13:19:38.718Z,2.20
2023-12-23T13:22:06.871Z,2.19
2023-12-23T13:24:34.535Z,2.18
2023-12-23T13:27:01.493Z,2.18
2023-12-23T13:29:29.372Z,2.15
2023-12-23T13:31:56.600Z,2.12
2023-12-23T13:34:23.650Z,2.11
2023-12-23T13:36:50.524Z,2.11
2023-12-23T13:39:17.472Z,2.13
2023-12-23T13:41:44.357Z,2.14
2023-12-23T13:44:11.311Z,2.14
2023-12-23T13:46:39.575Z,2.14
2023-12-23T13:49:06.594Z,2.15
2023-12-23T13:51:33.557Z,2.14
2023-12-23T13:54:00.429Z,2.12
2023-12-23T13:56:27.380Z,2.10
2023-12-23T13:58:54.373Z,2.11
2023-12-23T14:01:21.257Z,2.12
2023-12-23T14:03:48.256Z,2.12
2023-12-23T14:06:15.078Z,2.10
2023-12-23T14:08:41.906Z,2.07
2023-12-23T14:11:08.782Z,2.06
2023-12-23T14:13:35.774Z,2.03
2023-12-23T14:16:02.704Z,1.97
2023-12-23T14:18:29.697Z,1.94
2023-12-23T14:20:56.601Z,1.91
2023-12-23T14:23:23.433Z,1.88
2023-12-23T14:25:50.383Z,1.87
2023-12-23T14:28:18.739Z,1.85
2023-12-23T14:30:49.126Z,1.82
2023-12-23T14:33:16.102Z,1.80
2023-12-23T14:35:43.182Z,1.76
2023-12-23T14:38:10.175Z,1.74
2023-12-23T14:40:36.967Z,1.71
2023-12-23T14:43:03.797Z,1.71
2023-12-23T14:45:30.700Z,1.70
2023-12-23T14:47:57.561Z,1.71
2023-12-23T14:50:24.393Z,1.69
2023-12-23T14:52:51.664Z,1.66
2023-12-23T14:55:18.680Z,1.66
2023-12-23T14:57:45.491Z,1.64
2023-12-23T15:00:12.727Z,1.64
2023-12-23T15:02:39.577Z,1.68
2023-12-23T15:05:07.375Z,1.69
2023-12-23T15:07:34.270Z,1.69
2023-12-23T15:10:01.235Z,1.73
2023-12-23T15:12:28.805Z,1.74
2023-12-23T15:14:55.732Z,1.75
2023-12-23T15:17:22.824Z,1.74
2023-12-23T15:19:50.266Z,1.73
2023-12-23T15:22:17.279Z,1.72
2023-12-23T15:24:44.357Z,1.69
2023-12-23T15:27:11.284Z,1.68
2023-12-23T15:29:38.353Z,1.67
2023-12-23T15:32:05.397Z,1.68
2023-12-23T15:34:32.341Z,1.66
2023-12-23T15:36:59.192Z,1.67
2023-12-23T15:39:26.146Z,1.69
2023-12-23T15:41:52.990Z,1.70
2023-12-23T15:44:19.894Z,1.71
2023-12-23T15:46:46.988Z,1.69
2023-12-23T15:49:14.177Z,1.67
2023-12-23T15:51:41.099Z,1.66
2023-12-23T15:54:10.561Z,1.65
2023-12-23T15:56:40.636Z,1.68
2023-12-23T15:59:07.565Z,1.68
2023-12-23T16:01:35.058Z,1.69
2023-12-23T16:04:02.267Z,1.68
2023-12-23T16:06:30.794Z,1.65
2023-12-23T16:08:57.836Z,1.66
2023-12-23T16:11:24.777Z,1.65
2023-12-23T16:13:51.878Z,1.64
2023-12-23T16:16:18.786Z,1.62
2023-12-23T16:18:45.941Z,1.60
2023-12-23T16:21:14.109Z,1.60
2023-12-23T16:23:41.210Z,1.60
2023-12-23T16:26:16.031Z,1.59
2023-12-23T16:28:43.416Z,1.60
2023-12-23T16:31:10.328Z,1.60
2023-12-23T16:33:37.413Z,1.58
2023-12-23T16:36:04.740Z,1.57
2023-12-23T16:38:31.748Z,1.54
2023-12-23T16:40:58.947Z,1.50
2023-12-23T16:43:25.915Z,1.48
2023-12-23T16:45:52.863Z,1.46
2023-12-23T16:48:19.867Z,1.46
2023-12-23T16:50:47.201Z,1.48
2023-12-23T16:53:14.308Z,1.47
2023-12-23T16:55:41.377Z,1.49
2023-12-23T16:58:08.321Z,1.51
2023-12-23T17:00:35.282Z,1.53
2023-12-23T17:03:02.150Z,1.53
2023-12-23T17:05:29.155Z,1.57
2023-12-23T17:07:56.148Z,1.57
2023-12-23T17:10:23.090Z,1.55
2023-12-23T17:12:50.207Z,1.53
2023-12-23T17:15:17.290Z,1.54
2023-12-23T17:17:44.438Z,1.55
2023-12-23T17:20:12.054Z,1.52
2023-12-23T17:22:39.279Z,1.49
2023-12-23T17:25:06.437Z,1.48
2023-12-23T17:27:33.368Z,1.48
2023-12-23T17:30:01.402Z,1.49
2023-12-23T17:32:28.684Z,1.51
2023-12-23T17:34:55.893Z,1.52
2023-12-23T17:37:22.905Z,1.52
2023-12-23T17:39:49.755Z,1.54
2023-12-23T17:42:16.643Z,1.54
2023-12-23T17:44:43.563Z,1.56
2023-12-23T17:47:10.469Z,1.58
2023-12-23T17:49:37.458Z,1.57
2023-12-23T17:52:04.644Z,1.56
2023-12-23T17:54:31.476Z,1.56
2023-12-23T17:56:58.415Z,1.55
2023-12-23T17:59:26.416Z,1.56
2023-12-23T18:01:54.358Z,1.58
2023-12-23T18:04:21.414Z,1.58
2023-12-23T18:06:48.218Z,1.55
2023-12-23T18:09:15.211Z,1.56
2023-12-23T18:11:42.060Z,1.58
2023-12-23T18:14:09.026Z,1.56
2023-12-23T18:16:35.981Z,1.54
2023-12-23T18:19:02.805Z,1.54
2023-12-23T18:21:29.778Z,1.52
2023-12-23T18:23:56.612Z,1.53
2023-12-23T18:26:23.583Z,1.54
2023-12-23T18:28:50.433Z,1.55
2023-12-23T18:31:17.257Z,1.57
2023-12-23T18:33:44.300Z,1.60
2023-12-23T18:36:11.262Z,1.59
2023-12-23T18:38:38.101Z,1.61
2023-12-23T18:41:06.170Z,1.61
2023-12-23T18:43:33.233Z,1.62
2023-12-23T18:46:00.091Z,1.63
2023-12-23T18:48:27.150Z,1.62
2023-12-23T18:50:54.080Z,1.62
2023-12-23T18:53:20.969Z,1.59
2023-12-23T18:55:47.885Z,1.60
2023-12-23T18:58:16.578Z,1.50
2023-12-23T19:00:43.608Z,1.54
2023-12-23T19:03:13.370Z,1.54
2023-12-23T19:05:40.313Z,1.55
2023-12-23T19:08:08.579Z,1.54
2023-12-23T19:10:35.758Z,1.53
2023-12-23T19:13:03.104Z,1.51
2023-12-23T19:15:29.954Z,1.51
2023-12-23T19:17:57.031Z,1.51
2023-12-23T19:20:24.249Z,1.52
2023-12-23T19:22:51.459Z,1.52
2023-12-23T19:25:19.788Z,1.53
2023-12-23T19:27:47.262Z,1.52
2023-12-23T19:30:14.334Z,1.52
2023-12-23T19:32:41.997Z,1.52
2023-12-23T19:35:09.318Z,1.55
2023-12-23T19:37:37.418Z,1.57
2023-12-23T19:40:09.863Z,1.59
2023-12-23T19:42:38.064Z,1.61
2023-12-23T19:45:05.855Z,1.64
2023-12-23T19:47:36.021Z,1.66
2023-12-23T19:50:03.162Z,1.65
2023-12-23T19:52:30.073Z,1.65
2023-12-23T19:54:56.913Z,1.64
2023-12-23T19:57:23.766Z,1.63
2023-12-23T19:59:52.585Z,1.64
2023-12-23T20:02:19.543Z,1.65
2023-12-23T20:04:46.572Z,1.69
2023-12-23T20:07:13.344Z,1.70
2023-12-23T20:09:40.254Z,1.66
2023-12-23T20:12:08.358Z,1.70
2023-12-23T20:14:36.246Z,1.69
2023-12-23T20:17:03.508Z,1.68
2023-12-23T20:19:30.546Z,1.67
2023-12-23T20:21:57.474Z,1.67
2023-12-23T20:24:24.521Z,1.68
2023-12-23T20:26:52.519Z,1.71
2023-12-23T20:29:19.538Z,1.74
2023-12-23T20:31:46.497Z,1.74
2023-12-23T20:34:13.828Z,1.73
2023-12-23T20:36:44.986Z,1.73
2023-12-23T20:39:12.014Z,1.73
2023-12-23T20:41:52.731Z,1.72
2023-12-23T20:44:19.590Z,1.74
2023-12-23T20:46:46.525Z,1.74
2023-12-23T20:49:13.434Z,1.76
2023-12-23T20:51:44.008Z,1.78
2023-12-23T20:54:10.868Z,1.78
2023-12-23T20:56:37.791Z,1.78
2023-12-23T20:59:05.683Z,1.78
2023-12-23T21:01:32.646Z,1.79
2023-12-23T21:03:59.586Z,1.81
2023-12-23T21:06:27.174Z,1.83
2023-12-23T21:08:54.106Z,1.82
2023-12-23T21:11:21.252Z,1.83
2023-12-23T21:13:48.303Z,1.84
2023-12-23T21:16:15.255Z,1.82
2023-12-23T21:18:45.671Z,1.82
2023-12-23T21:21:13.315Z,1.82
2023-12-23T21:23:40.669Z,1.84
2023-12-23T21:26:16.196Z,1.86
2023-12-23T21:28:43.120Z,1.89
2023-12-23T21:31:10.271Z,1.92
2023-12-23T21:33:37.183Z,1.93
2023-12-23T21:36:05.550Z,1.95
2023-12-23T21:38:32.645Z,1.97
2023-12-23T21:41:00.108Z,1.97
2023-12-23T21:43:27.188Z,1.97
2023-12-23T21:45:55.080Z,1.98
2023-12-23T21:48:22.606Z,2.00
2023-12-23T21:50:55.496Z,2.01
2023-12-23T21:53:25.867Z,2.02
2023-12-23T21:55:55.334Z,2.02
2023-12-23T21:58:22.287Z,2.03
2023-12-23T22:00:49.561Z,2.04
2023-12-23T22:03:16.827Z,2.05
2023-12-23T22:05:43.975Z,2.04
2023-12-23T22:08:11.123Z,2.02
2023-12-23T22:10:38.153Z,1.99
2023-12-23T22:13:05.195Z,1.98
2023-12-23T22:15:32.056Z,1.99
2023-12-23T22:17:58.941Z,2.02
2023-12-23T22:20:25.877Z,2.05
2023-12-23T22:22:53.333Z,2.04
2023-12-23T22:25:21.827Z,2.03
2023-12-23T22:27:48.846Z,2.03
2023-12-23T22:30:15.836Z,2.04
2023-12-23T22:32:43.263Z,2.04
2023-12-23T22:35:10.526Z,2.04
2023-12-23T22:37:38.206Z,2.03
2023-12-23T22:40:05.475Z,2.03
2023-12-23T22:42:32.316Z,2.00
2023-12-23T22:44:59.137Z,1.94
2023-12-23T22:47:28.086Z,1.92
2023-12-23T22:49:55.313Z,1.91
2023-12-23T22:52:22.263Z,1.91
2023-12-23T22:54:49.156Z,1.91
2023-12-23T22:57:16.148Z,1.91
2023-12-23T22:59:42.993Z,1.89
2023-12-23T23:02:09.819Z,1.88
2023-12-23T23:04:36.914Z,1.88
2023-12-23T23:07:03.948Z,1.89
2023-12-23T23:09:31.210Z,1.89
2023-12-23T23:11:58.683Z,1.89
2023-12-23T23:14:25.763Z,1.87
2023-12-23T23:16:52.851Z,1.88
2023-12-23T23:19:19.957Z,1.86
2023-12-23T23:21:46.898Z,1.84
2023-12-23T23:24:13.731Z,1.84
2023-12-23T23:26:40.683Z,1.82
2023-12-23T23:29:07.771Z,1.79
2023-12-23T23:31:34.586Z,1.76
2023-12-23T23:34:01.605Z,1.75
2023-12-23T23:36:28.600Z,1.75
2023-12-23T23:38:55.538Z,1.79
2023-12-23T23:41:22.517Z,1.80
2023-12-23T23:43:49.545Z,1.82
2023-12-23T23:46:16.654Z,1.80
2023-12-23T23:48:46.144Z,1.79
2023-12-23T23:51:19.452Z,1.78
2023-12-23T23:53:46.562Z,1.78
2023-12-23T23:56:18.229Z,1.77
2023-12-23T23:58:46.895Z,1.73
